sensor_id;sensor_type;location;lat;lon;timestamp;temperature;humidity
25949;DHT22;13961;51.178;4.448;2023-01-09T00:01:36;7.90;99.90
25949;DHT22;13961;51.178;4.448;2023-01-09T00:04:03;7.40;99.90
25949;DHT22;13961;51.178;4.448;2023-01-09T00:06:29;7.30;99.90
25949;DHT22;13961;51.178;4.448;2023-01-09T00:08:55;7.40;99.90
25949;DHT22;13961;51.178;4.448;2023-01-09T00:11:21;7.30;99.90
25949;DHT22;13961;51.178;4.448;2023-01-09T00:13:47;7.50;99.90
25949;DHT22;13961;51.178;4.448;2023-01-09T00:16:13;7.80;99.90
25949;DHT22;13961;51.178;4.448;2023-01-09T00:18:38;7.50;99.90
25949;DHT22;13961;51.178;4.448;2023-01-09T00:21:06;7.50;99.90
25949;DHT22;13961;51.178;4.448;2023-01-09T00:23:34;7.70;99.90
25949;DHT22;13961;51.178;4.448;2023-01-09T00:26:11;7.50;99.90
25949;DHT22;13961;51.178;4.448;2023-01-09T00:28:39;7.50;99.90
25949;DHT22;13961;51.178;4.448;2023-01-09T00:31:06;7.80;99.90
25949;DHT22;13961;51.178;4.448;2023-01-09T00:33:35;7.60;99.90
25949;DHT22;13961;51.178;4.448;2023-01-09T00:36:01;7.50;99.90
25949;DHT22;13961;51.178;4.448;2023-01-09T00:38:27;7.60;99.90
25949;DHT22;13961;51.178;4.448;2023-01-09T00:40:53;7.30;99.90
25949;DHT22;13961;51.178;4.448;2023-01-09T00:43:21;7.30;99.90
25949;DHT22;13961;51.178;4.448;2023-01-09T00:45:48;7.30;99.90
25949;DHT22;13961;51.178;4.448;2023-01-09T00:48:17;7.50;99.90
25949;DHT22;13961;51.178;4.448;2023-01-09T00:50:50;7.30;99.90
25949;DHT22;13961;51.178;4.448;2023-01-09T00:53:18;7.50;99.90
25949;DHT22;13961;51.178;4.448;2023-01-09T00:55:45;7.40;99.90
25949;DHT22;13961;51.178;4.448;2023-01-09T00:58:11;7.70;99.90
25949;DHT22;13961;51.178;4.448;2023-01-09T01:00:36;7.30;99.90
25949;DHT22;13961;51.178;4.448;2023-01-09T01:03:02;7.10;99.90
25949;DHT22;13961;51.178;4.448;2023-01-09T01:05:28;7.10;99.90
25949;DHT22;13961;51.178;4.448;2023-01-09T01:08:18;7.30;99.90
25949;DHT22;13961;51.178;4.448;2023-01-09T01:10:45;7.30;99.90
25949;DHT22;13961;51.178;4.448;2023-01-09T01:13:11;7.30;99.90
25949;DHT22;13961;51.178;4.448;2023-01-09T01:15:41;7.30;99.90
25949;DHT22;13961;51.178;4.448;2023-01-09T01:18:08;7.10;99.90
25949;DHT22;13961;51.178;4.448;2023-01-09T01:20:34;6.90;99.90
25949;DHT22;13961;51.178;4.448;2023-01-09T01:23:00;7.20;99.90
25949;DHT22;13961;51.178;4.448;2023-01-09T01:25:25;7.10;99.90
25949;DHT22;13961;51.178;4.448;2023-01-09T01:27:51;7.20;99.90
25949;DHT22;13961;51.178;4.448;2023-01-09T01:30:17;7.10;99.90
25949;DHT22;13961;51.178;4.448;2023-01-09T01:32:44;7.30;99.90
25949;DHT22;13961;51.178;4.448;2023-01-09T01:35:10;7.20;99.90
25949;DHT22;13961;51.178;4.448;2023-01-09T01:37:37;6.90;99.90
25949;DHT22;13961;51.178;4.448;2023-01-09T01:40:04;6.90;99.90
25949;DHT22;13961;51.178;4.448;2023-01-09T01:42:30;6.90;99.90
25949;DHT22;13961;51.178;4.448;2023-01-09T01:47:41;6.80;99.90
25949;DHT22;13961;51.178;4.448;2023-01-09T01:50:34;6.80;99.90
25949;DHT22;13961;51.178;4.448;2023-01-09T01:55:31;6.80;99.90
25949;DHT22;13961;51.178;4.448;2023-01-09T01:58:01;7.10;99.90
25949;DHT22;13961;51.178;4.448;2023-01-09T02:00:34;6.80;99.90
25949;DHT22;13961;51.178;4.448;2023-01-09T02:03:01;6.80;99.90
25949;DHT22;13961;51.178;4.448;2023-01-09T02:05:27;6.90;99.90
25949;DHT22;13961;51.178;4.448;2023-01-09T02:07:53;7.00;99.90
25949;DHT22;13961;51.178;4.448;2023-01-09T02:10:19;7.10;99.90
25949;DHT22;13961;51.178;4.448;2023-01-09T02:12:48;6.90;99.90
25949;DHT22;13961;51.178;4.448;2023-01-09T02:15:15;7.00;99.90
25949;DHT22;13961;51.178;4.448;2023-01-09T02:17:48;6.80;99.90
25949;DHT22;13961;51.178;4.448;2023-01-09T02:26:33;6.80;99.90
25949;DHT22;13961;51.178;4.448;2023-01-09T02:34:41;6.70;99.90
25949;DHT22;13961;51.178;4.448;2023-01-09T02:40:08;6.70;99.90
25949;DHT22;13961;51.178;4.448;2023-01-09T02:42:39;6.90;99.90
25949;DHT22;13961;51.178;4.448;2023-01-09T02:45:06;7.10;99.90
25949;DHT22;13961;51.178;4.448;2023-01-09T02:47:38;6.90;99.90
25949;DHT22;13961;51.178;4.448;2023-01-09T02:50:08;7.10;99.90
25949;DHT22;13961;51.178;4.448;2023-01-09T03:00:46;7.10;99.90
25949;DHT22;13961;51.178;4.448;2023-01-09T03:06:13;7.20;99.90
25949;DHT22;13961;51.178;4.448;2023-01-09T03:08:47;7.20;99.90
25949;DHT22;13961;51.178;4.448;2023-01-09T03:11:13;7.30;99.90
25949;DHT22;13961;51.178;4.448;2023-01-09T03:13:56;7.50;99.90
25949;DHT22;13961;51.178;4.448;2023-01-09T03:16:35;7.40;99.90
25949;DHT22;13961;51.178;4.448;2023-01-09T03:19:04;7.50;99.90
25949;DHT22;13961;51.178;4.448;2023-01-09T03:21:32;7.70;99.90
25949;DHT22;13961;51.178;4.448;2023-01-09T03:24:00;7.80;99.90
25949;DHT22;13961;51.178;4.448;2023-01-09T03:26:26;7.50;99.90
25949;DHT22;13961;51.178;4.448;2023-01-09T03:28:54;7.50;99.90
25949;DHT22;13961;51.178;4.448;2023-01-09T03:31:19;7.40;99.90
25949;DHT22;13961;51.178;4.448;2023-01-09T03:33:45;7.60;99.90
25949;DHT22;13961;51.178;4.448;2023-01-09T03:36:12;7.50;99.90
25949;DHT22;13961;51.178;4.448;2023-01-09T03:38:38;7.50;99.90
25949;DHT22;13961;51.178;4.448;2023-01-09T03:41:04;7.60;99.90
25949;DHT22;13961;51.178;4.448;2023-01-09T03:43:30;7.70;99.90
25949;DHT22;13961;51.178;4.448;2023-01-09T03:45:55;7.70;99.90
25949;DHT22;13961;51.178;4.448;2023-01-09T03:48:21;7.60;99.90
25949;DHT22;13961;51.178;4.448;2023-01-09T03:50:51;7.70;99.90
25949;DHT22;13961;51.178;4.448;2023-01-09T03:53:18;7.80;99.90
25949;DHT22;13961;51.178;4.448;2023-01-09T03:55:49;7.80;99.90
25949;DHT22;13961;51.178;4.448;2023-01-09T03:58:16;7.60;99.90
25949;DHT22;13961;51.178;4.448;2023-01-09T04:00:43;7.70;99.90
25949;DHT22;13961;51.178;4.448;2023-01-09T04:03:10;7.70;99.90
25949;DHT22;13961;51.178;4.448;2023-01-09T04:05:38;7.70;99.90
25949;DHT22;13961;51.178;4.448;2023-01-09T04:08:04;7.70;99.90
25949;DHT22;13961;51.178;4.448;2023-01-09T04:10:30;7.70;99.90
25949;DHT22;13961;51.178;4.448;2023-01-09T04:12:55;7.80;99.90
25949;DHT22;13961;51.178;4.448;2023-01-09T04:15:22;7.70;99.90
25949;DHT22;13961;51.178;4.448;2023-01-09T04:17:48;7.80;99.90
25949;DHT22;13961;51.178;4.448;2023-01-09T04:20:14;7.80;99.90
25949;DHT22;13961;51.178;4.448;2023-01-09T04:22:40;7.70;99.90
25949;DHT22;13961;51.178;4.448;2023-01-09T04:25:06;7.80;99.90
25949;DHT22;13961;51.178;4.448;2023-01-09T04:27:33;7.80;99.90
25949;DHT22;13961;51.178;4.448;2023-01-09T04:29:59;7.90;99.90
25949;DHT22;13961;51.178;4.448;2023-01-09T04:32:25;7.90;99.90
25949;DHT22;13961;51.178;4.448;2023-01-09T04:34:53;8.10;99.90
25949;DHT22;13961;51.178;4.448;2023-01-09T04:37:22;7.90;99.90
25949;DHT22;13961;51.178;4.448;2023-01-09T04:39:49;8.00;99.90
25949;DHT22;13961;51.178;4.448;2023-01-09T04:42:15;7.90;99.90
25949;DHT22;13961;51.178;4.448;2023-01-09T04:44:41;8.00;99.90
25949;DHT22;13961;51.178;4.448;2023-01-09T04:47:07;7.90;99.90
25949;DHT22;13961;51.178;4.448;2023-01-09T04:49:32;7.90;99.90
25949;DHT22;13961;51.178;4.448;2023-01-09T04:51:58;7.80;99.90
25949;DHT22;13961;51.178;4.448;2023-01-09T04:54:24;7.90;99.90
25949;DHT22;13961;51.178;4.448;2023-01-09T04:56:49;7.90;99.90
25949;DHT22;13961;51.178;4.448;2023-01-09T04:59:15;7.90;99.90
25949;DHT22;13961;51.178;4.448;2023-01-09T05:01:41;7.90;99.90
25949;DHT22;13961;51.178;4.448;2023-01-09T05:04:07;8.10;99.90
25949;DHT22;13961;51.178;4.448;2023-01-09T05:06:33;8.10;99.90
25949;DHT22;13961;51.178;4.448;2023-01-09T05:08:59;8.20;99.90
25949;DHT22;13961;51.178;4.448;2023-01-09T05:11:25;8.20;99.90
25949;DHT22;13961;51.178;4.448;2023-01-09T05:13:52;8.00;99.90
25949;DHT22;13961;51.178;4.448;2023-01-09T05:16:17;8.00;99.90
25949;DHT22;13961;51.178;4.448;2023-01-09T05:18:43;8.20;99.90
25949;DHT22;13961;51.178;4.448;2023-01-09T05:21:09;8.20;99.90
25949;DHT22;13961;51.178;4.448;2023-01-09T05:23:35;8.10;99.90
25949;DHT22;13961;51.178;4.448;2023-01-09T05:26:00;8.20;99.90
25949;DHT22;13961;51.178;4.448;2023-01-09T05:28:29;8.30;99.90
25949;DHT22;13961;51.178;4.448;2023-01-09T05:30:54;8.20;99.90
25949;DHT22;13961;51.178;4.448;2023-01-09T05:33:20;8.20;99.90
25949;DHT22;13961;51.178;4.448;2023-01-09T05:35:46;8.10;99.90
25949;DHT22;13961;51.178;4.448;2023-01-09T05:38:11;8.30;99.90
25949;DHT22;13961;51.178;4.448;2023-01-09T05:40:37;8.10;99.90
25949;DHT22;13961;51.178;4.448;2023-01-09T05:43:03;8.20;99.90
25949;DHT22;13961;51.178;4.448;2023-01-09T05:45:28;8.20;99.90
25949;DHT22;13961;51.178;4.448;2023-01-09T05:47:54;8.20;99.90
25949;DHT22;13961;51.178;4.448;2023-01-09T05:50:19;8.10;99.90
25949;DHT22;13961;51.178;4.448;2023-01-09T05:52:45;8.10;99.90
25949;DHT22;13961;51.178;4.448;2023-01-09T05:55:11;8.00;99.90
25949;DHT22;13961;51.178;4.448;2023-01-09T05:57:38;8.20;99.90
25949;DHT22;13961;51.178;4.448;2023-01-09T06:00:04;8.20;99.90
25949;DHT22;13961;51.178;4.448;2023-01-09T06:02:30;8.10;99.90
25949;DHT22;13961;51.178;4.448;2023-01-09T06:04:56;8.30;99.90
25949;DHT22;13961;51.178;4.448;2023-01-09T06:07:21;8.00;99.90
25949;DHT22;13961;51.178;4.448;2023-01-09T06:09:47;8.10;99.90
25949;DHT22;13961;51.178;4.448;2023-01-09T06:12:13;8.30;99.90
25949;DHT22;13961;51.178;4.448;2023-01-09T06:14:38;8.20;99.90
25949;DHT22;13961;51.178;4.448;2023-01-09T06:17:05;8.50;99.90
25949;DHT22;13961;51.178;4.448;2023-01-09T06:19:31;8.30;99.90
25949;DHT22;13961;51.178;4.448;2023-01-09T06:21:56;8.20;99.90
25949;DHT22;13961;51.178;4.448;2023-01-09T06:24:22;8.30;99.90
25949;DHT22;13961;51.178;4.448;2023-01-09T06:26:48;8.10;99.90
25949;DHT22;13961;51.178;4.448;2023-01-09T06:29:14;8.10;99.90
25949;DHT22;13961;51.178;4.448;2023-01-09T06:31:39;8.00;99.90
25949;DHT22;13961;51.178;4.448;2023-01-09T06:34:05;7.90;99.90
25949;DHT22;13961;51.178;4.448;2023-01-09T06:36:31;7.90;99.90
25949;DHT22;13961;51.178;4.448;2023-01-09T06:38:57;7.90;99.90
25949;DHT22;13961;51.178;4.448;2023-01-09T06:41:22;8.00;99.90
25949;DHT22;13961;51.178;4.448;2023-01-09T06:43:48;7.80;99.90
25949;DHT22;13961;51.178;4.448;2023-01-09T06:46:13;7.80;99.90
25949;DHT22;13961;51.178;4.448;2023-01-09T06:48:39;8.00;99.90
25949;DHT22;13961;51.178;4.448;2023-01-09T06:51:05;8.00;99.90
25949;DHT22;13961;51.178;4.448;2023-01-09T06:53:30;7.80;99.90
25949;DHT22;13961;51.178;4.448;2023-01-09T06:55:56;8.00;99.90
25949;DHT22;13961;51.178;4.448;2023-01-09T06:58:22;7.80;99.90
25949;DHT22;13961;51.178;4.448;2023-01-09T07:00:47;7.80;99.90
25949;DHT22;13961;51.178;4.448;2023-01-09T07:03:17;7.90;99.90
25949;DHT22;13961;51.178;4.448;2023-01-09T07:05:45;8.20;99.90
25949;DHT22;13961;51.178;4.448;2023-01-09T07:08:11;8.20;99.90
25949;DHT22;13961;51.178;4.448;2023-01-09T07:10:37;8.00;99.90
25949;DHT22;13961;51.178;4.448;2023-01-09T07:13:02;8.10;99.90
25949;DHT22;13961;51.178;4.448;2023-01-09T07:15:28;8.10;99.90
25949;DHT22;13961;51.178;4.448;2023-01-09T07:17:54;8.00;99.90
25949;DHT22;13961;51.178;4.448;2023-01-09T07:20:20;8.00;99.90
25949;DHT22;13961;51.178;4.448;2023-01-09T07:22:46;8.20;99.90
25949;DHT22;13961;51.178;4.448;2023-01-09T07:25:12;8.10;99.90
25949;DHT22;13961;51.178;4.448;2023-01-09T07:27:38;8.30;99.90
25949;DHT22;13961;51.178;4.448;2023-01-09T07:30:05;8.00;99.90
25949;DHT22;13961;51.178;4.448;2023-01-09T07:32:32;8.20;99.90
25949;DHT22;13961;51.178;4.448;2023-01-09T07:34:58;8.20;99.90
25949;DHT22;13961;51.178;4.448;2023-01-09T07:37:24;8.50;99.90
25949;DHT22;13961;51.178;4.448;2023-01-09T07:39:50;8.30;99.90
25949;DHT22;13961;51.178;4.448;2023-01-09T07:42:16;8.40;99.90
25949;DHT22;13961;51.178;4.448;2023-01-09T07:44:42;8.30;99.90
25949;DHT22;13961;51.178;4.448;2023-01-09T07:47:08;8.20;99.90
25949;DHT22;13961;51.178;4.448;2023-01-09T07:49:34;8.30;99.90
25949;DHT22;13961;51.178;4.448;2023-01-09T07:51:59;8.20;99.90
25949;DHT22;13961;51.178;4.448;2023-01-09T07:54:25;8.10;99.90
25949;DHT22;13961;51.178;4.448;2023-01-09T07:56:51;8.40;99.90
25949;DHT22;13961;51.178;4.448;2023-01-09T07:59:16;8.30;99.90
25949;DHT22;13961;51.178;4.448;2023-01-09T08:01:44;8.10;99.90
25949;DHT22;13961;51.178;4.448;2023-01-09T08:04:09;8.30;99.90
25949;DHT22;13961;51.178;4.448;2023-01-09T08:06:35;8.30;99.90
25949;DHT22;13961;51.178;4.448;2023-01-09T08:09:01;8.60;99.90
25949;DHT22;13961;51.178;4.448;2023-01-09T08:11:26;8.40;99.90
25949;DHT22;13961;51.178;4.448;2023-01-09T08:13:52;8.30;99.90
25949;DHT22;13961;51.178;4.448;2023-01-09T08:16:18;8.30;99.90
25949;DHT22;13961;51.178;4.448;2023-01-09T08:18:43;8.50;99.90
25949;DHT22;13961;51.178;4.448;2023-01-09T08:21:10;8.40;99.90
25949;DHT22;13961;51.178;4.448;2023-01-09T08:23:36;8.40;99.90
25949;DHT22;13961;51.178;4.448;2023-01-09T08:26:02;8.40;99.90
25949;DHT22;13961;51.178;4.448;2023-01-09T08:28:28;8.40;99.90
25949;DHT22;13961;51.178;4.448;2023-01-09T08:30:54;8.40;99.90
25949;DHT22;13961;51.178;4.448;2023-01-09T08:33:20;8.30;99.90
25949;DHT22;13961;51.178;4.448;2023-01-09T08:35:46;8.50;99.90
25949;DHT22;13961;51.178;4.448;2023-01-09T08:38:11;8.60;99.90
25949;DHT22;13961;51.178;4.448;2023-01-09T08:40:37;8.50;99.90
25949;DHT22;13961;51.178;4.448;2023-01-09T08:43:03;8.60;99.90
25949;DHT22;13961;51.178;4.448;2023-01-09T08:45:48;8.50;99.90
25949;DHT22;13961;51.178;4.448;2023-01-09T08:48:32;8.60;99.90
25949;DHT22;13961;51.178;4.448;2023-01-09T08:50:57;8.70;99.90
25949;DHT22;13961;51.178;4.448;2023-01-09T08:53:23;8.80;99.90
25949;DHT22;13961;51.178;4.448;2023-01-09T08:55:49;8.90;99.90
25949;DHT22;13961;51.178;4.448;2023-01-09T08:58:14;8.70;99.90
25949;DHT22;13961;51.178;4.448;2023-01-09T09:00:40;8.50;99.90
25949;DHT22;13961;51.178;4.448;2023-01-09T09:03:07;8.70;99.90
25949;DHT22;13961;51.178;4.448;2023-01-09T09:05:33;8.60;99.90
25949;DHT22;13961;51.178;4.448;2023-01-09T09:07:59;8.50;99.90
25949;DHT22;13961;51.178;4.448;2023-01-09T09:10:26;8.60;99.90
25949;DHT22;13961;51.178;4.448;2023-01-09T09:12:54;8.70;99.90
25949;DHT22;13961;51.178;4.448;2023-01-09T09:15:20;8.80;99.90
25949;DHT22;13961;51.178;4.448;2023-01-09T09:18:01;8.80;99.90
25949;DHT22;13961;51.178;4.448;2023-01-09T09:20:33;8.70;99.90
25949;DHT22;13961;51.178;4.448;2023-01-09T09:22:58;8.70;99.90
25949;DHT22;13961;51.178;4.448;2023-01-09T09:25:25;8.60;99.90
25949;DHT22;13961;51.178;4.448;2023-01-09T09:27:51;8.70;99.90
25949;DHT22;13961;51.178;4.448;2023-01-09T09:30:18;8.80;99.90
25949;DHT22;13961;51.178;4.448;2023-01-09T09:32:44;8.90;99.90
25949;DHT22;13961;51.178;4.448;2023-01-09T09:35:10;9.00;99.90
25949;DHT22;13961;51.178;4.448;2023-01-09T09:37:36;8.90;99.90
25949;DHT22;13961;51.178;4.448;2023-01-09T09:40:04;8.80;99.90
25949;DHT22;13961;51.178;4.448;2023-01-09T09:49:00;8.70;99.90
25949;DHT22;13961;51.178;4.448;2023-01-09T09:51:39;8.70;99.90
25949;DHT22;13961;51.178;4.448;2023-01-09T09:54:11;8.70;99.90
25949;DHT22;13961;51.178;4.448;2023-01-09T09:56:58;8.90;99.90
25949;DHT22;13961;51.178;4.448;2023-01-09T09:59:28;9.10;99.90
25949;DHT22;13961;51.178;4.448;2023-01-09T10:02:23;9.30;99.90
25949;DHT22;13961;51.178;4.448;2023-01-09T10:05:11;9.20;99.90
25949;DHT22;13961;51.178;4.448;2023-01-09T10:07:43;9.10;99.90
25949;DHT22;13961;51.178;4.448;2023-01-09T10:10:25;9.00;99.90
25949;DHT22;13961;51.178;4.448;2023-01-09T10:13:01;9.00;99.90
25949;DHT22;13961;51.178;4.448;2023-01-09T10:19:13;9.10;99.90
25949;DHT22;13961;51.178;4.448;2023-01-09T10:22:03;9.10;99.90
25949;DHT22;13961;51.178;4.448;2023-01-09T10:30:02;9.30;99.90
25949;DHT22;13961;51.178;4.448;2023-01-09T10:32:55;9.30;99.90
25949;DHT22;13961;51.178;4.448;2023-01-09T10:38:12;9.30;99.90
25949;DHT22;13961;51.178;4.448;2023-01-09T10:40:43;9.30;99.90
25949;DHT22;13961;51.178;4.448;2023-01-09T10:43:28;9.50;99.90
25949;DHT22;13961;51.178;4.448;2023-01-09T10:45:59;9.30;99.90
25949;DHT22;13961;51.178;4.448;2023-01-09T10:49:00;9.40;99.90
25949;DHT22;13961;51.178;4.448;2023-01-09T10:51:47;9.40;99.90
25949;DHT22;13961;51.178;4.448;2023-01-09T10:54:16;9.60;99.90
25949;DHT22;13961;51.178;4.448;2023-01-09T10:56:53;9.60;99.90
25949;DHT22;13961;51.178;4.448;2023-01-09T10:59:20;9.50;99.90
25949;DHT22;13961;51.178;4.448;2023-01-09T11:01:47;9.50;99.90
25949;DHT22;13961;51.178;4.448;2023-01-09T11:04:29;9.60;99.90
25949;DHT22;13961;51.178;4.448;2023-01-09T11:07:04;9.40;99.90
25949;DHT22;13961;51.178;4.448;2023-01-09T11:10:01;9.50;99.90
25949;DHT22;13961;51.178;4.448;2023-01-09T11:12:32;9.20;99.90
25949;DHT22;13961;51.178;4.448;2023-01-09T11:17:47;9.40;99.90
25949;DHT22;13961;51.178;4.448;2023-01-09T11:22:50;9.90;99.90
25949;DHT22;13961;51.178;4.448;2023-01-09T11:25:19;10.00;99.90
25949;DHT22;13961;51.178;4.448;2023-01-09T11:28:04;10.10;99.90
25949;DHT22;13961;51.178;4.448;2023-01-09T11:30:37;9.90;99.90
25949;DHT22;13961;51.178;4.448;2023-01-09T11:33:40;9.80;99.90
25949;DHT22;13961;51.178;4.448;2023-01-09T11:36:10;9.70;99.90
25949;DHT22;13961;51.178;4.448;2023-01-09T11:38:48;9.60;99.90
25949;DHT22;13961;51.178;4.448;2023-01-09T11:41:19;9.60;99.90
25949;DHT22;13961;51.178;4.448;2023-01-09T11:43:49;9.80;99.90
25949;DHT22;13961;51.178;4.448;2023-01-09T11:46:39;9.60;99.90
25949;DHT22;13961;51.178;4.448;2023-01-09T11:49:25;9.50;99.90
25949;DHT22;13961;51.178;4.448;2023-01-09T11:54:44;9.70;99.90
25949;DHT22;13961;51.178;4.448;2023-01-09T11:57:12;9.70;99.90
25949;DHT22;13961;51.178;4.448;2023-01-09T11:59:38;9.70;99.90
25949;DHT22;13961;51.178;4.448;2023-01-09T12:04:58;9.60;99.90
25949;DHT22;13961;51.178;4.448;2023-01-09T12:19:14;9.60;99.90
25949;DHT22;13961;51.178;4.448;2023-01-09T12:30:18;9.70;99.90
25949;DHT22;13961;51.178;4.448;2023-01-09T12:48:57;9.80;99.90
25949;DHT22;13961;51.178;4.448;2023-01-09T12:52:04;9.90;99.90
25949;DHT22;13961;51.178;4.448;2023-01-09T12:54:51;9.60;99.90
25949;DHT22;13961;51.178;4.448;2023-01-09T13:00:27;9.80;99.90
25949;DHT22;13961;51.178;4.448;2023-01-09T13:05:49;9.70;99.90
25949;DHT22;13961;51.178;4.448;2023-01-09T13:08:17;9.80;99.90
25949;DHT22;13961;51.178;4.448;2023-01-09T13:10:55;9.80;99.90
25949;DHT22;13961;51.178;4.448;2023-01-09T13:13:41;9.60;99.90
25949;DHT22;13961;51.178;4.448;2023-01-09T13:16:29;9.60;99.90
25949;DHT22;13961;51.178;4.448;2023-01-09T13:19:26;9.90;99.90
25949;DHT22;13961;51.178;4.448;2023-01-09T13:21:53;10.00;99.90
25949;DHT22;13961;51.178;4.448;2023-01-09T13:25:00;9.90;99.90
25949;DHT22;13961;51.178;4.448;2023-01-09T13:27:38;9.90;99.90
25949;DHT22;13961;51.178;4.448;2023-01-09T13:30:16;10.10;99.90
25949;DHT22;13961;51.178;4.448;2023-01-09T13:32:59;9.80;99.90
25949;DHT22;13961;51.178;4.448;2023-01-09T13:35:30;9.90;99.90
25949;DHT22;13961;51.178;4.448;2023-01-09T13:37:57;10.10;99.90
25949;DHT22;13961;51.178;4.448;2023-01-09T13:40:27;10.00;99.90
25949;DHT22;13961;51.178;4.448;2023-01-09T13:42:57;10.10;99.90
25949;DHT22;13961;51.178;4.448;2023-01-09T13:45:25;10.20;99.90
25949;DHT22;13961;51.178;4.448;2023-01-09T13:50:36;10.30;99.90
25949;DHT22;13961;51.178;4.448;2023-01-09T13:58:25;10.60;99.90
25949;DHT22;13961;51.178;4.448;2023-01-09T14:00:57;10.60;99.90
25949;DHT22;13961;51.178;4.448;2023-01-09T14:03:35;10.30;99.90
25949;DHT22;13961;51.178;4.448;2023-01-09T14:06:13;10.50;99.90
25949;DHT22;13961;51.178;4.448;2023-01-09T14:08:41;10.80;99.90
25949;DHT22;13961;51.178;4.448;2023-01-09T14:11:08;10.70;99.90
25949;DHT22;13961;51.178;4.448;2023-01-09T14:13:43;10.50;99.90
25949;DHT22;13961;51.178;4.448;2023-01-09T14:16:20;10.10;99.90
25949;DHT22;13961;51.178;4.448;2023-01-09T14:19:02;10.00;99.90
25949;DHT22;13961;51.178;4.448;2023-01-09T14:21:47;9.80;99.90
25949;DHT22;13961;51.178;4.448;2023-01-09T14:24:26;9.60;99.90
25949;DHT22;13961;51.178;4.448;2023-01-09T14:26:56;9.60;99.90
25949;DHT22;13961;51.178;4.448;2023-01-09T14:34:56;9.80;99.90
25949;DHT22;13961;51.178;4.448;2023-01-09T14:37:24;9.90;99.90
25949;DHT22;13961;51.178;4.448;2023-01-09T14:39:51;9.80;99.90
25949;DHT22;13961;51.178;4.448;2023-01-09T14:42:22;9.90;99.90
25949;DHT22;13961;51.178;4.448;2023-01-09T14:45:06;10.00;99.90
25949;DHT22;13961;51.178;4.448;2023-01-09T14:47:44;9.90;99.90
25949;DHT22;13961;51.178;4.448;2023-01-09T14:53:06;10.20;99.90
25949;DHT22;13961;51.178;4.448;2023-01-09T15:01:07;9.70;99.90
25949;DHT22;13961;51.178;4.448;2023-01-09T15:03:37;9.70;99.90
25949;DHT22;13961;51.178;4.448;2023-01-09T15:06:05;9.40;99.90
25949;DHT22;13961;51.178;4.448;2023-01-09T15:08:35;9.30;99.90
25949;DHT22;13961;51.178;4.448;2023-01-09T15:11:02;9.20;99.90
25949;DHT22;13961;51.178;4.448;2023-01-09T15:13:36;9.20;99.90
25949;DHT22;13961;51.178;4.448;2023-01-09T15:16:05;9.30;99.90
25949;DHT22;13961;51.178;4.448;2023-01-09T15:18:38;9.20;99.90
25949;DHT22;13961;51.178;4.448;2023-01-09T15:21:05;9.10;99.90
25949;DHT22;13961;51.178;4.448;2023-01-09T15:23:31;9.00;99.90
25949;DHT22;13961;51.178;4.448;2023-01-09T15:26:11;8.80;99.90
25949;DHT22;13961;51.178;4.448;2023-01-09T15:28:42;8.50;99.90
25949;DHT22;13961;51.178;4.448;2023-01-09T15:31:16;8.50;99.90
25949;DHT22;13961;51.178;4.448;2023-01-09T15:33:45;8.50;99.90
25949;DHT22;13961;51.178;4.448;2023-01-09T15:36:26;8.40;99.90
25949;DHT22;13961;51.178;4.448;2023-01-09T15:38:53;8.30;99.90
25949;DHT22;13961;51.178;4.448;2023-01-09T15:41:26;8.20;99.90
25949;DHT22;13961;51.178;4.448;2023-01-09T15:44:17;8.30;99.90
25949;DHT22;13961;51.178;4.448;2023-01-09T15:46:44;8.30;99.90
25949;DHT22;13961;51.178;4.448;2023-01-09T15:49:11;8.40;99.90
25949;DHT22;13961;51.178;4.448;2023-01-09T15:51:41;8.60;99.90
25949;DHT22;13961;51.178;4.448;2023-01-09T15:54:16;9.00;99.90
25949;DHT22;13961;51.178;4.448;2023-01-09T15:56:42;8.90;99.90
25949;DHT22;13961;51.178;4.448;2023-01-09T15:59:23;9.00;99.90
25949;DHT22;13961;51.178;4.448;2023-01-09T16:01:56;9.00;99.90
25949;DHT22;13961;51.178;4.448;2023-01-09T16:04:43;8.80;99.90
25949;DHT22;13961;51.178;4.448;2023-01-09T16:07:14;8.80;99.90
25949;DHT22;13961;51.178;4.448;2023-01-09T16:09:43;8.80;99.90
25949;DHT22;13961;51.178;4.448;2023-01-09T16:12:21;8.80;99.90
25949;DHT22;13961;51.178;4.448;2023-01-09T16:14:55;8.80;99.90
25949;DHT22;13961;51.178;4.448;2023-01-09T16:17:23;8.70;99.90
25949;DHT22;13961;51.178;4.448;2023-01-09T16:19:51;8.70;99.90
25949;DHT22;13961;51.178;4.448;2023-01-09T16:22:26;8.80;99.90
25949;DHT22;13961;51.178;4.448;2023-01-09T16:24:53;8.70;99.90
25949;DHT22;13961;51.178;4.448;2023-01-09T16:27:28;8.50;99.90
25949;DHT22;13961;51.178;4.448;2023-01-09T16:29:59;8.50;99.90
25949;DHT22;13961;51.178;4.448;2023-01-09T16:32:29;8.60;99.90
25949;DHT22;13961;51.178;4.448;2023-01-09T16:35:02;8.70;99.90
25949;DHT22;13961;51.178;4.448;2023-01-09T16:37:30;8.90;99.90
25949;DHT22;13961;51.178;4.448;2023-01-09T16:42:46;8.40;99.90
25949;DHT22;13961;51.178;4.448;2023-01-09T16:45:38;8.30;99.90
25949;DHT22;13961;51.178;4.448;2023-01-09T16:48:12;8.40;99.90
25949;DHT22;13961;51.178;4.448;2023-01-09T16:50:39;8.50;99.90
25949;DHT22;13961;51.178;4.448;2023-01-09T16:53:20;8.50;99.90
25949;DHT22;13961;51.178;4.448;2023-01-09T16:55:49;8.30;99.90
25949;DHT22;13961;51.178;4.448;2023-01-09T16:58:21;8.40;99.90
25949;DHT22;13961;51.178;4.448;2023-01-09T17:00:48;8.30;99.90
25949;DHT22;13961;51.178;4.448;2023-01-09T17:03:16;8.30;99.90
25949;DHT22;13961;51.178;4.448;2023-01-09T17:05:42;8.30;99.90
25949;DHT22;13961;51.178;4.448;2023-01-09T17:08:22;8.50;99.90
25949;DHT22;13961;51.178;4.448;2023-01-09T17:10:49;8.50;99.90
25949;DHT22;13961;51.178;4.448;2023-01-09T17:13:15;8.60;99.90
25949;DHT22;13961;51.178;4.448;2023-01-09T17:15:41;8.40;99.90
25949;DHT22;13961;51.178;4.448;2023-01-09T17:18:21;8.50;99.90
25949;DHT22;13961;51.178;4.448;2023-01-09T17:20:53;8.40;99.90
25949;DHT22;13961;51.178;4.448;2023-01-09T17:23:21;8.10;99.90
25949;DHT22;13961;51.178;4.448;2023-01-09T17:25:53;8.00;99.90
25949;DHT22;13961;51.178;4.448;2023-01-09T17:28:43;8.00;99.90
25949;DHT22;13961;51.178;4.448;2023-01-09T17:31:10;7.80;99.90
25949;DHT22;13961;51.178;4.448;2023-01-09T17:33:37;7.80;99.90
25949;DHT22;13961;51.178;4.448;2023-01-09T17:36:30;7.70;99.90
25949;DHT22;13961;51.178;4.448;2023-01-09T17:39:00;7.80;99.90
25949;DHT22;13961;51.178;4.448;2023-01-09T17:41:30;7.70;99.90
25949;DHT22;13961;51.178;4.448;2023-01-09T17:43:58;7.80;99.90
25949;DHT22;13961;51.178;4.448;2023-01-09T17:46:32;7.90;99.90
25949;DHT22;13961;51.178;4.448;2023-01-09T17:49:02;8.10;99.90
25949;DHT22;13961;51.178;4.448;2023-01-09T17:51:29;8.10;99.90
25949;DHT22;13961;51.178;4.448;2023-01-09T17:53:55;8.00;99.90
25949;DHT22;13961;51.178;4.448;2023-01-09T17:56:25;8.00;99.90
25949;DHT22;13961;51.178;4.448;2023-01-09T17:58:51;7.90;99.90
25949;DHT22;13961;51.178;4.448;2023-01-09T18:01:18;7.80;99.90
25949;DHT22;13961;51.178;4.448;2023-01-09T18:03:44;7.70;99.90
25949;DHT22;13961;51.178;4.448;2023-01-09T18:06:20;7.70;99.90
25949;DHT22;13961;51.178;4.448;2023-01-09T18:08:46;7.70;99.90
25949;DHT22;13961;51.178;4.448;2023-01-09T18:11:17;7.90;99.90